sensor_id;sensor_type;location;lat;lon;timestamp;pressure;altitude;pressure_sealevel;temperature;humidity
54876;BME280;40764;48.472;8.166;2022-12-10T00:03:43;96948.00;;;1.42;92.90
54876;BME280;40764;48.472;8.166;2022-12-10T00:09:44;96962.31;;;1.68;92.82
54876;BME280;40764;48.472;8.166;2022-12-10T00:15:44;96964.50;;;1.76;92.04
54876;BME280;40764;48.472;8.166;2022-12-10T00:21:45;96951.81;;;1.71;92.63
54876;BME280;40764;48.472;8.166;2022-12-10T00:27:45;96957.19;;;1.71;92.39
54876;BME280;40764;48.472;8.166;2022-12-10T00:33:46;96959.66;;;1.88;92.56
54876;BME280;40764;48.472;8.166;2022-12-10T00:39:47;96962.06;;;2.15;90.60
54876;BME280;40764;48.472;8.166;2022-12-10T00:45:47;96962.59;;;2.12;89.82
54876;BME280;40764;48.472;8.166;2022-12-10T00:51:48;96973.38;;;1.97;91.09
54876;BME280;40764;48.472;8.166;2022-12-10T00:57:48;96968.25;;;2.00;90.35
54876;BME280;40764;48.472;8.166;2022-12-10T01:03:50;96972.84;;;1.90;91.27
54876;BME280;40764;48.472;8.166;2022-12-10T01:09:50;96975.53;;;1.84;91.87
54876;BME280;40764;48.472;8.166;2022-12-10T01:15:50;96976.09;;;1.81;92.15
54876;BME280;40764;48.472;8.166;2022-12-10T01:21:54;96973.94;;;1.83;92.30
54876;BME280;40764;48.472;8.166;2022-12-10T01:27:56;96967.19;;;1.86;92.21
54876;BME280;40764;48.472;8.166;2022-12-10T01:33:57;96952.38;;;1.83;92.14
54876;BME280;40764;48.472;8.166;2022-12-10T01:40:00;96941.06;;;1.81;91.88
54876;BME280;40764;48.472;8.166;2022-12-10T01:46:00;96951.56;;;1.88;91.29
54876;BME280;40764;48.472;8.166;2022-12-10T01:52:02;96957.22;;;1.86;90.65
54876;BME280;40764;48.472;8.166;2022-12-10T01:58:03;96968.47;;;1.28;92.17
54876;BME280;40764;48.472;8.166;2022-12-10T02:16:36;96986.38;;;0.97;94.40
54876;BME280;40764;48.472;8.166;2022-12-10T02:22:44;96988.09;;;1.18;93.96
54876;BME280;40764;48.472;8.166;2022-12-10T02:34:58;96981.72;;;1.49;92.43
54876;BME280;40764;48.472;8.166;2022-12-10T02:41:05;96983.00;;;1.32;92.19
54876;BME280;40764;48.472;8.166;2022-12-10T02:47:06;96991.41;;;1.50;92.64
54876;BME280;40764;48.472;8.166;2022-12-10T02:53:07;96998.41;;;1.67;92.51
54876;BME280;40764;48.472;8.166;2022-12-10T03:05:59;96982.78;;;1.64;92.71
54876;BME280;40764;48.472;8.166;2022-12-10T03:11:59;96999.81;;;2.05;91.37
54876;BME280;40764;48.472;8.166;2022-12-10T03:18:03;97002.50;;;2.35;89.26
54876;BME280;40764;48.472;8.166;2022-12-10T03:24:05;97001.41;;;2.26;88.82
54876;BME280;40764;48.472;8.166;2022-12-10T03:30:06;96997.66;;;2.12;89.52
54876;BME280;40764;48.472;8.166;2022-12-10T03:36:08;97002.78;;;2.13;89.29
54876;BME280;40764;48.472;8.166;2022-12-10T03:42:09;96998.44;;;2.02;90.64
54876;BME280;40764;48.472;8.166;2022-12-10T03:48:09;96987.66;;;1.92;90.92
54876;BME280;40764;48.472;8.166;2022-12-10T03:54:09;96993.88;;;1.93;90.62
54876;BME280;40764;48.472;8.166;2022-12-10T04:00:10;96983.63;;;2.25;89.64
54876;BME280;40764;48.472;8.166;2022-12-10T04:06:14;96991.44;;;2.37;88.95
54876;BME280;40764;48.472;8.166;2022-12-10T04:12:15;97005.19;;;2.15;88.49
54876;BME280;40764;48.472;8.166;2022-12-10T04:18:15;96996.28;;;1.94;90.42
54876;BME280;40764;48.472;8.166;2022-12-10T04:24:18;96987.63;;;1.57;91.80
54876;BME280;40764;48.472;8.166;2022-12-10T04:30:37;96986.88;;;1.81;90.71
54876;BME280;40764;48.472;8.166;2022-12-10T04:36:37;96988.75;;;2.01;90.96
54876;BME280;40764;48.472;8.166;2022-12-10T04:42:37;96993.31;;;1.65;90.64
54876;BME280;40764;48.472;8.166;2022-12-10T04:48:38;96989.03;;;1.90;91.63
54876;BME280;40764;48.472;8.166;2022-12-10T04:54:38;96993.63;;;2.04;90.50
54876;BME280;40764;48.472;8.166;2022-12-10T05:00:39;96994.94;;;1.92;89.75
54876;BME280;40764;48.472;8.166;2022-12-10T05:06:39;96984.94;;;1.62;91.69
54876;BME280;40764;48.472;8.166;2022-12-10T05:12:40;96992.53;;;1.85;90.73
54876;BME280;40764;48.472;8.166;2022-12-10T05:18:40;96995.75;;;1.77;90.85
54876;BME280;40764;48.472;8.166;2022-12-10T05:24:41;97005.47;;;1.88;90.23
54876;BME280;40764;48.472;8.166;2022-12-10T05:30:41;97006.00;;;1.95;90.42
54876;BME280;40764;48.472;8.166;2022-12-10T05:36:41;97006.53;;;2.12;89.70
54876;BME280;40764;48.472;8.166;2022-12-10T05:42:42;97006.53;;;2.17;88.73
54876;BME280;40764;48.472;8.166;2022-12-10T05:48:42;97015.97;;;2.15;89.05
54876;BME280;40764;48.472;8.166;2022-12-10T05:54:42;97018.41;;;2.37;87.95
54876;BME280;40764;48.472;8.166;2022-12-10T06:00:42;97026.75;;;2.30;87.97
54876;BME280;40764;48.472;8.166;2022-12-10T06:06:43;97029.19;;;2.11;87.88
54876;BME280;40764;48.472;8.166;2022-12-10T06:12:44;97037.25;;;1.96;88.53
54876;BME280;40764;48.472;8.166;2022-12-10T06:18:45;97046.16;;;2.02;88.97
54876;BME280;40764;48.472;8.166;2022-12-10T06:24:45;97054.78;;;2.29;88.24
54876;BME280;40764;48.472;8.166;2022-12-10T06:30:45;97059.66;;;2.42;87.26
54876;BME280;40764;48.472;8.166;2022-12-10T06:36:46;97064.78;;;2.03;88.82
54876;BME280;40764;48.472;8.166;2022-12-10T06:42:46;97073.94;;;2.12;88.15
54876;BME280;40764;48.472;8.166;2022-12-10T06:48:47;97083.94;;;2.37;87.79
54876;BME280;40764;48.472;8.166;2022-12-10T06:54:47;97095.78;;;2.11;88.26
54876;BME280;40764;48.472;8.166;2022-12-10T07:00:47;97110.34;;;2.05;88.81
54876;BME280;40764;48.472;8.166;2022-12-10T07:06:48;97105.75;;;2.05;89.56
54876;BME280;40764;48.472;8.166;2022-12-10T07:12:48;97110.09;;;2.42;88.33
54876;BME280;40764;48.472;8.166;2022-12-10T07:18:49;97102.53;;;2.13;89.15
54876;BME280;40764;48.472;8.166;2022-12-10T07:24:50;97111.66;;;1.97;90.36
54876;BME280;40764;48.472;8.166;2022-12-10T07:30:50;97120.28;;;1.99;90.26
54876;BME280;40764;48.472;8.166;2022-12-10T07:36:51;97131.63;;;2.06;90.33
54876;BME280;40764;48.472;8.166;2022-12-10T07:42:51;97129.50;;;2.24;89.07
54876;BME280;40764;48.472;8.166;2022-12-10T07:48:51;97139.22;;;2.25;89.82
54876;BME280;40764;48.472;8.166;2022-12-10T07:54:52;97142.97;;;2.08;90.73
54876;BME280;40764;48.472;8.166;2022-12-10T08:00:52;97141.00;;;1.83;92.10
54876;BME280;40764;48.472;8.166;2022-12-10T08:06:54;97141.78;;;1.74;93.44
54876;BME280;40764;48.472;8.166;2022-12-10T08:12:55;97149.81;;;1.59;94.47
54876;BME280;40764;48.472;8.166;2022-12-10T08:18:57;97149.03;;;1.68;94.38
54876;BME280;40764;48.472;8.166;2022-12-10T08:24:57;97150.47;;;1.96;93.64
54876;BME280;40764;48.472;8.166;2022-12-10T08:30:57;97154.56;;;2.09;92.21
54876;BME280;40764;48.472;8.166;2022-12-10T08:36:58;97169.44;;;2.47;90.74
54876;BME280;40764;48.472;8.166;2022-12-10T08:42:58;97170.78;;;2.49;90.58
54876;BME280;40764;48.472;8.166;2022-12-10T08:48:58;97173.78;;;2.63;90.08
54876;BME280;40764;48.472;8.166;2022-12-10T08:54:59;97180.78;;;2.79;88.73
54876;BME280;40764;48.472;8.166;2022-12-10T09:00:59;97182.66;;;2.59;89.97
54876;BME280;40764;48.472;8.166;2022-12-10T09:07:01;97187.78;;;2.50;90.21
54876;BME280;40764;48.472;8.166;2022-12-10T09:13:02;97199.66;;;2.54;90.66
54876;BME280;40764;48.472;8.166;2022-12-10T09:19:03;97198.38;;;2.92;89.04
54876;BME280;40764;48.472;8.166;2022-12-10T09:25:05;97208.31;;;2.76;88.72
54876;BME280;40764;48.472;8.166;2022-12-10T09:31:07;97202.94;;;2.92;88.72
54876;BME280;40764;48.472;8.166;2022-12-10T09:37:08;97209.41;;;2.65;88.42
54876;BME280;40764;48.472;8.166;2022-12-10T09:43:55;97213.44;;;2.58;89.10
54876;BME280;40764;48.472;8.166;2022-12-10T09:50:19;97222.88;;;2.50;89.73
54876;BME280;40764;48.472;8.166;2022-12-10T09:56:24;97224.75;;;2.60;89.27
54876;BME280;40764;48.472;8.166;2022-12-10T10:02:29;97224.19;;;2.37;90.49
54876;BME280;40764;48.472;8.166;2022-12-10T10:08:40;97218.53;;;2.39;90.26
54876;BME280;40764;48.472;8.166;2022-12-10T10:14:43;97222.81;;;2.30;89.05
54876;BME280;40764;48.472;8.166;2022-12-10T10:20:44;97226.38;;;2.45;89.47
54876;BME280;40764;48.472;8.166;2022-12-10T10:26:45;97230.94;;;2.40;89.62
54876;BME280;40764;48.472;8.166;2022-12-10T10:32:55;97232.63;;;2.66;89.88
54876;BME280;40764;48.472;8.166;2022-12-10T10:38:56;97241.81;;;3.01;87.00
54876;BME280;40764;48.472;8.166;2022-12-10T10:44:56;97233.69;;;2.75;87.44
54876;BME280;40764;48.472;8.166;2022-12-10T10:51:16;97231.81;;;3.01;87.53
54876;BME280;40764;48.472;8.166;2022-12-10T10:57:33;97235.06;;;2.78;87.67
54876;BME280;40764;48.472;8.166;2022-12-10T11:03:35;97236.41;;;2.80;88.01
54876;BME280;40764;48.472;8.166;2022-12-10T11:09:44;97239.38;;;2.94;87.07
54876;BME280;40764;48.472;8.166;2022-12-10T11:15:45;97231.28;;;2.84;87.73
54876;BME280;40764;48.472;8.166;2022-12-10T11:21:45;97242.38;;;3.18;86.68
54876;BME280;40764;48.472;8.166;2022-12-10T11:28:01;97253.94;;;2.88;86.29
54876;BME280;40764;48.472;8.166;2022-12-10T11:34:30;97247.19;;;2.65;87.17
54876;BME280;40764;48.472;8.166;2022-12-10T11:53:15;97273.56;;;2.43;88.10
54876;BME280;40764;48.472;8.166;2022-12-10T11:59:34;97273.81;;;2.36;88.16
54876;BME280;40764;48.472;8.166;2022-12-10T12:12:29;97279.97;;;2.27;88.19
54876;BME280;40764;48.472;8.166;2022-12-10T12:18:55;97277.78;;;2.13;89.16
54876;BME280;40764;48.472;8.166;2022-12-10T12:25:02;97289.56;;;2.02;89.96
54876;BME280;40764;48.472;8.166;2022-12-10T12:31:09;97285.88;;;2.18;89.32
54876;BME280;40764;48.472;8.166;2022-12-10T12:37:14;97295.59;;;2.20;88.48
54876;BME280;40764;48.472;8.166;2022-12-10T12:43:22;97297.03;;;2.47;87.91
54876;BME280;40764;48.472;8.166;2022-12-10T12:49:31;97305.94;;;2.38;88.29
54876;BME280;40764;48.472;8.166;2022-12-10T13:21:30;97331.25;;;2.32;88.03
54876;BME280;40764;48.472;8.166;2022-12-10T13:27:35;97341.19;;;2.26;87.45
54876;BME280;40764;48.472;8.166;2022-12-10T13:59:06;97379.91;;;2.57;87.24
54876;BME280;40764;48.472;8.166;2022-12-10T14:11:48;97403.06;;;2.43;86.16
54876;BME280;40764;48.472;8.166;2022-12-10T14:17:56;97405.88;;;2.21;87.51
54876;BME280;40764;48.472;8.166;2022-12-10T14:23:59;97415.34;;;2.24;88.02
54876;BME280;40764;48.472;8.166;2022-12-10T14:30:03;97423.81;;;2.42;87.10
54876;BME280;40764;48.472;8.166;2022-12-10T14:36:04;97425.81;;;2.15;88.36
54876;BME280;40764;48.472;8.166;2022-12-10T14:42:05;97431.41;;;2.03;87.87
54876;BME280;40764;48.472;8.166;2022-12-10T14:48:06;97435.06;;;2.29;87.50
54876;BME280;40764;48.472;8.166;2022-12-10T14:54:34;97444.13;;;2.13;87.19
54876;BME280;40764;48.472;8.166;2022-12-10T15:00:35;97454.47;;;2.26;87.89
54876;BME280;40764;48.472;8.166;2022-12-10T15:06:36;97457.03;;;2.06;87.59
54876;BME280;40764;48.472;8.166;2022-12-10T15:12:40;97461.88;;;2.04;87.47
54876;BME280;40764;48.472;8.166;2022-12-10T15:18:44;97467.13;;;2.26;87.67
54876;BME280;40764;48.472;8.166;2022-12-10T15:24:46;97464.53;;;2.41;87.03
54876;BME280;40764;48.472;8.166;2022-12-10T15:30:46;97471.75;;;1.93;87.71
54876;BME280;40764;48.472;8.166;2022-12-10T15:36:53;97476.91;;;2.00;87.96
54876;BME280;40764;48.472;8.166;2022-12-10T15:49:22;97470.44;;;2.01;87.71
54876;BME280;40764;48.472;8.166;2022-12-10T15:55:23;97475.66;;;2.07;87.46
54876;BME280;40764;48.472;8.166;2022-12-10T16:01:23;97489.94;;;2.08;86.67
54876;BME280;40764;48.472;8.166;2022-12-10T16:07:24;97495.34;;;2.08;86.47
54876;BME280;40764;48.472;8.166;2022-12-10T16:13:24;97502.75;;;1.96;87.71
54876;BME280;40764;48.472;8.166;2022-12-10T16:19:26;97517.88;;;1.97;87.72
54876;BME280;40764;48.472;8.166;2022-12-10T16:25:29;97511.28;;;2.14;86.29
54876;BME280;40764;48.472;8.166;2022-12-10T16:31:30;97516.81;;;1.98;87.38
54876;BME280;40764;48.472;8.166;2022-12-10T16:37:30;97520.31;;;1.98;86.52
54876;BME280;40764;48.472;8.166;2022-12-10T16:43:30;97523.03;;;1.71;87.88
54876;BME280;40764;48.472;8.166;2022-12-10T16:49:32;97532.59;;;1.57;88.19
54876;BME280;40764;48.472;8.166;2022-12-10T16:55:33;97535.53;;;1.82;87.52
54876;BME280;40764;48.472;8.166;2022-12-10T17:01:34;97536.09;;;1.58;87.26
54876;BME280;40764;48.472;8.166;2022-12-10T17:07:35;97545.22;;;1.78;87.26
54876;BME280;40764;48.472;8.166;2022-12-10T17:13:37;97542.69;;;1.72;87.66
54876;BME280;40764;48.472;8.166;2022-12-10T17:19:39;97545.09;;;1.68;87.53
54876;BME280;40764;48.472;8.166;2022-12-10T17:25:41;97548.78;;;1.35;88.17
54876;BME280;40764;48.472;8.166;2022-12-10T17:31:43;97551.28;;;1.42;89.08
54876;BME280;40764;48.472;8.166;2022-12-10T17:37:43;97546.72;;;1.69;88.47
54876;BME280;40764;48.472;8.166;2022-12-10T17:43:43;97564.91;;;1.57;87.78
54876;BME280;40764;48.472;8.166;2022-12-10T17:49:44;97565.72;;;1.58;87.65
54876;BME280;40764;48.472;8.166;2022-12-10T17:55:54;97566.63;;;1.41;88.24
54876;BME280;40764;48.472;8.166;2022-12-10T18:01:56;97566.91;;;1.67;89.52
54876;BME280;40764;48.472;8.166;2022-12-10T18:08:02;97560.75;;;1.71;89.52
54876;BME280;40764;48.472;8.166;2022-12-10T18:14:02;97565.69;;;1.52;88.96
54876;BME280;40764;48.472;8.166;2022-12-10T18:20:03;97574.94;;;1.40;90.10
54876;BME280;40764;48.472;8.166;2022-12-10T18:26:10;97581.16;;;1.40;91.20
54876;BME280;40764;48.472;8.166;2022-12-10T18:32:11;97601.56;;;1.36;91.39
54876;BME280;40764;48.472;8.166;2022-12-10T18:38:13;97601.94;;;1.67;90.00
54876;BME280;40764;48.472;8.166;2022-12-10T18:44:15;97601.00;;;1.56;90.28
54876;BME280;40764;48.472;8.166;2022-12-10T18:50:22;97606.06;;;1.74;89.27
54876;BME280;40764;48.472;8.166;2022-12-10T18:56:25;97599.22;;;1.67;90.04
54876;BME280;40764;48.472;8.166;2022-12-10T19:02:27;97607.25;;;1.83;87.80
54876;BME280;40764;48.472;8.166;2022-12-10T19:08:28;97618.31;;;1.87;86.53
54876;BME280;40764;48.472;8.166;2022-12-10T19:14:29;97614.81;;;1.86;86.48
54876;BME280;40764;48.472;8.166;2022-12-10T19:20:29;97620.53;;;1.68;86.19
54876;BME280;40764;48.472;8.166;2022-12-10T19:26:36;97611.72;;;2.00;84.82
54876;BME280;40764;48.472;8.166;2022-12-10T19:32:37;97607.13;;;2.00;84.23
54876;BME280;40764;48.472;8.166;2022-12-10T19:38:37;97610.00;;;1.67;85.39
54876;BME280;40764;48.472;8.166;2022-12-10T19:44:37;97606.19;;;1.63;83.70
54876;BME280;40764;48.472;8.166;2022-12-10T19:50:38;97609.97;;;1.40;84.56
54876;BME280;40764;48.472;8.166;2022-12-10T19:56:39;97610.16;;;1.77;83.59
54876;BME280;40764;48.472;8.166;2022-12-10T20:02:40;97617.78;;;1.85;83.68
54876;BME280;40764;48.472;8.166;2022-12-10T20:08:40;97615.66;;;1.43;86.42
54876;BME280;40764;48.472;8.166;2022-12-10T20:14:40;97610.91;;;1.50;86.73
54876;BME280;40764;48.472;8.166;2022-12-10T20:20:41;97610.53;;;1.42;87.47
54876;BME280;40764;48.472;8.166;2022-12-10T20:26:45;97622.09;;;1.42;88.92
54876;BME280;40764;48.472;8.166;2022-12-10T20:32:46;97623.44;;;1.18;88.96
54876;BME280;40764;48.472;8.166;2022-12-10T20:38:47;97613.34;;;1.30;89.64
54876;BME280;40764;48.472;8.166;2022-12-10T20:44:48;97613.38;;;0.91;88.52
54876;BME280;40764;48.472;8.166;2022-12-10T20:50:48;97622.84;;;0.77;88.93
54876;BME280;40764;48.472;8.166;2022-12-10T20:56:48;97617.91;;;1.08;88.40
54876;BME280;40764;48.472;8.166;2022-12-10T21:02:49;97614.63;;;1.06;87.69
54876;BME280;40764;48.472;8.166;2022-12-10T21:08:52;97620.22;;;1.43;86.22
54876;BME280;40764;48.472;8.166;2022-12-10T21:14:52;97611.88;;;1.01;86.70
54876;BME280;40764;48.472;8.166;2022-12-10T21:20:54;97616.50;;;1.05;87.47
54876;BME280;40764;48.472;8.166;2022-12-10T21:26:54;97618.59;;;0.81;87.69
54876;BME280;40764;48.472;8.166;2022-12-10T21:32:55;97622.69;;;0.50;89.37
54876;BME280;40764;48.472;8.166;2022-12-10T21:38:55;97614.53;;;0.45;89.58
54876;BME280;40764;48.472;8.166;2022-12-10T21:44:56;97610.22;;;0.11;90.02
54876;BME280;40764;48.472;8.166;2022-12-10T21:51:01;97610.88;;;-0.27;91.57
54876;BME280;40764;48.472;8.166;2022-12-10T21:57:02;97607.00;;;-0.32;92.33
54876;BME280;40764;48.472;8.166;2022-12-10T22:03:03;97617.72;;;-0.48;92.88
54876;BME280;40764;48.472;8.166;2022-12-10T22:09:03;97612.03;;;-0.23;91.28
54876;BME280;40764;48.472;8.166;2022-12-10T22:15:04;97614.47;;;-0.22;90.89
54876;BME280;40764;48.472;8.166;2022-12-10T22:21:05;97618.06;;;-0.16;90.32
54876;BME280;40764;48.472;8.166;2022-12-10T22:27:05;97624.88;;;-0.54;91.17
54876;BME280;40764;48.472;8.166;2022-12-10T22:33:06;97615.84;;;-0.19;90.95
54876;BME280;40764;48.472;8.166;2022-12-10T22:39:07;97624.31;;;0.01;90.58
54876;BME280;40764;48.472;8.166;2022-12-10T22:45:09;97623.16;;;0.14;89.66
54876;BME280;40764;48.472;8.166;2022-12-10T22:51:10;97626.34;;;0.11;89.90
54876;BME280;40764;48.472;8.166;2022-12-10T22:57:11;97621.25;;;-0.03;90.24
54876;BME280;40764;48.472;8.166;2022-12-10T23:03:11;97606.09;;;-0.25;92.24
54876;BME280;40764;48.472;8.166;2022-12-10T23:09:11;97614.94;;;0.04;91.32
54876;BME280;40764;48.472;8.166;2022-12-10T23:15:12;97609.47;;;0.15;90.21
54876;BME280;40764;48.472;8.166;2022-12-10T23:21:21;97608.13;;;0.29;89.25
54876;BME280;40764;48.472;8.166;2022-12-10T23:27:22;97616.09;;;-0.21;89.56
54876;BME280;40764;48.472;8.166;2022-12-10T23:33:22;97614.03;;;0.15;90.03
54876;BME280;40764;48.472;8.166;2022-12-10T23:39:22;97615.03;;;0.09;90.09
54876;BME280;40764;48.472;8.166;2022-12-10T23:45:23;97608.34;;;0.28;89.32
54876;BME280;40764;48.472;8.166;2022-12-10T23:51:23;97593.53;;;0.09;90.97
54876;BME280;40764;48.472;8.166;2022-12-10T23:57:24;97584.97;;;0.28;89.99
